Station TCMW1 - 9446482 - Tacoma Met, WA Image indicating link to RSS feed of recent meteorological observations for station TCMW1


Conditions at TCMW1 as of
(12:18 am PDT)
0718 GMT on 05/24/2024:
     

Click on the graph icon in the table below to see a time series plot of the last five days of that observation.

5-day plot - Wind Direction Wind Direction (WDIR): W ( 260 deg true )
5-day plot - Wind Speed Wind Speed (WSPD): 5.1 kts
5-day plot - Wind Gust Wind Gust (GST): 7.0 kts
5-day plot - Air Temperature Air Temperature (ATMP): 53.8 °F
5-day plot - Wind Speed at 10 Meters Wind Speed at 10 meters (WSPD10M): 5.8 kts
5-day plot - Wind Speed at 20 Meters Wind Speed at 20 meters (WSPD20M): 5.8 kts
5-day plot -  Wind Speed, Wind Gust and Atmospheric Pressure Combined plot of Wind Speed, Gust, and Air Pressure
NOS Water Level Observation Network Water Level
Previous observations
TIME
(PDT)
5-day plot - Wind Direction
WDIR
 
5-day plot - Wind Speed
WSPD
kts
5-day plot - Wind Gust
GST
kts
5-day plot - Wave Height
WVHT
ft
5-day plot - Dominant Wave Period
DPD
sec
5-day plot - Average Wave Period
APD
sec
5-day plot - Mean Wave Direction
MWD
 
5-day plot - Atmospheric Pressure
PRES
in
5-day plot - Pressure Tendency
PTDY
in
5-day plot - Air Temperature
ATMP
°F
5-day plot - Water Temperature
WTMP
°F
5-day plot - Dew Point
DEWP
°F
5-day plot - Salinity
SAL
psu
5-day plot - Visibility
VIS
nmi
5-day plot - Tide (above MLLW)
TIDE
ft
2024-05-24 12:12 am W 7.0 9.9------ 54.0-----
2024-05-24 12:06 am W 7.0 8.9------ 54.0-----
2024-05-24 12:00 amWSW 5.1 7.0------ 54.1-----
2024-05-23 11:54 pm NE 1.9 7.0------ 54.1-----
2024-05-23 11:48 pm N 5.1 8.0------ 54.1-----
2024-05-23 11:42 pmNNE 4.1 5.1------ 54.1-----
2024-05-23 11:36 pmNNE 6.0 7.0------ 54.3-----
2024-05-23 11:30 pm N 5.1 6.0------ 54.3-----
2024-05-23 11:24 pm N 2.9 5.1------ 54.3-----
2024-05-23 11:18 pmNNE 4.1 5.1------ 54.3-----
2024-05-23 11:12 pm N 2.9 4.1------ 54.1-----
2024-05-23 11:06 pmNNW 1.9 4.1------ 54.1-----
2024-05-23 11:00 pmWNW 4.1 8.9------------
2024-05-23 10:54 pm W 5.1 8.0------------
2024-05-23 10:48 pmWNW 5.1 7.0------ 54.9-----
2024-05-23 10:42 pm W 7.0 9.9------ 54.9-----
2024-05-23 10:36 pm W 6.0 7.0------ 55.2-----
2024-05-23 10:30 pm W 4.1 5.1------ 55.0-----
2024-05-23 10:24 pm NW 1.0 1.9------ 54.3-----
2024-05-23 10:18 pm- 0.0 1.9------ 54.9-----
2024-05-23 10:12 pm W 1.9 4.1------ 55.4-----
2024-05-23 10:06 pm W 4.1 5.1------ 55.8-----
2024-05-23 10:00 pm W 5.1 6.0------ 55.8-----
2024-05-23 09:54 pm W 6.0 8.0------ 56.3-----
2024-05-23 09:48 pm W 6.0 8.0------------
2024-05-23 09:42 pm W 7.0 8.9------------
2024-05-23 09:36 pm W 7.0 8.0------------
2024-05-23 09:30 pm W 6.0 7.0------ 57.0-----
2024-05-23 09:24 pm W 6.0 7.0------ 57.6-----
2024-05-23 09:18 pmWSW 6.0 8.0------ 57.6-----
2024-05-23 09:12 pmWSW 4.1 6.0------ 57.4-----
2024-05-23 09:06 pm- 0.0 1.0------ 56.1-----
2024-05-23 09:00 pm- 0.0 1.9------ 55.8-----
2024-05-23 08:54 pm W 2.9 4.1------ 57.4-----
2024-05-23 08:48 pm W 4.1 4.1------ 57.9-----
2024-05-23 08:42 pm W 4.1 5.1------ 58.5-----
2024-05-23 08:36 pm W 5.1 5.1------ 58.6-----
2024-05-23 08:30 pmWSW 5.1 6.0------ 58.1-----
2024-05-23 08:24 pm W 4.1 5.1------ 57.6-----
2024-05-23 08:18 pmWSW 4.1 5.1------ 58.5-----
2024-05-23 08:12 pmWSW 5.1 6.0------ 58.1-----
2024-05-23 08:06 pmWSW 5.1 5.1------ 58.1-----
2024-05-23 08:00 pmWSW 6.0 8.0------ 58.8-----
2024-05-23 07:54 pm W 8.0 9.9------ 59.2-----
2024-05-23 07:48 pm W 8.9 9.9------ 58.6-----
2024-05-23 07:42 pm W 7.0 8.0------ 57.9-----
2024-05-23 07:36 pm W 8.0 8.9------ 58.5-----
2024-05-23 07:30 pm W 8.0 11.1------ 58.8-----
2024-05-23 07:24 pm W 11.1 12.0------ 59.0-----
2024-05-23 07:18 pm W 8.9 9.9------ 58.5-----
2024-05-23 07:12 pm W 8.0 9.9------ 59.0-----
2024-05-23 07:06 pm W 9.9 13.0------ 58.8-----
2024-05-23 07:00 pm W 11.1 13.0------ 58.8-----
2024-05-23 06:54 pm W 8.9 9.9------ 59.0-----
2024-05-23 06:48 pm W 7.0 8.9------ 58.6-----
2024-05-23 06:42 pm W 7.0 9.9------ 59.5-----
2024-05-23 06:36 pm W 8.0 8.9------ 59.4-----
2024-05-23 06:30 pmWSW 7.0 11.1------ 59.7-----
2024-05-23 06:24 pm W 6.0 8.9------ 58.6-----
2024-05-23 06:18 pm W 8.0 14.0------ 59.0-----
2024-05-23 06:12 pm W 5.1 6.0------ 59.5-----
2024-05-23 06:06 pm W 5.1 7.0------ 59.5-----
2024-05-23 06:00 pm W 6.0 8.0------ 59.4-----
2024-05-23 05:54 pmWSW 8.0 15.0------ 59.7-----
2024-05-23 05:48 pm W 2.9 6.0------ 59.5-----
2024-05-23 05:42 pmWSW 7.0 11.1------ 59.4-----
2024-05-23 05:36 pmWSW 5.1 8.9------ 59.5-----
2024-05-23 05:30 pmWSW 7.0 11.1------ 59.2-----
2024-05-23 05:24 pmWSW 6.0 12.0------ 59.2-----
2024-05-23 05:18 pm W 8.9 11.1------ 59.0-----
2024-05-23 05:12 pm W 8.9 11.1------ 59.0-----
2024-05-23 05:06 pm W 5.1 12.0------ 59.2-----
2024-05-23 05:00 pm W 11.1 13.0------ 58.8-----
2024-05-23 04:54 pm W 11.1 14.0------ 58.6-----
2024-05-23 04:48 pm W 8.0 12.0------ 58.6-----
2024-05-23 04:42 pmWSW 8.9 9.9------ 58.6-----
2024-05-23 04:36 pm N 1.9 4.1------ 58.8-----
2024-05-23 04:30 pmNNW 1.9 4.1------ 58.8-----
2024-05-23 04:24 pmWNW 2.9 4.1------ 58.6-----
2024-05-23 04:18 pmWNW 1.0 1.9------ 59.4-----
2024-05-23 04:12 pm W 1.9 2.9------ 58.6-----
2024-05-23 04:06 pmWSW 2.9 6.0------ 58.6-----
2024-05-23 04:00 pm SW 6.0 8.9------ 58.5-----
2024-05-23 03:54 pmWNW 1.0 2.9------ 59.0-----
2024-05-23 03:48 pm W 2.9 5.1------ 58.3-----
2024-05-23 03:42 pmWSW 5.1 8.0------ 58.6-----
2024-05-23 03:36 pm SW 5.1 8.0------ 58.3-----
2024-05-23 03:30 pm SW 6.0 8.0------ 57.9-----
2024-05-23 03:24 pm W 5.1 9.9------ 57.2-----
2024-05-23 03:18 pm SW 7.0 8.9------ 58.1-----
2024-05-23 03:12 pmWSW 7.0 8.9------ 57.6-----
2024-05-23 03:06 pmWSW 6.0 7.0------ 57.7-----
2024-05-23 03:00 pm W 4.1 8.0------ 57.0-----
2024-05-23 02:54 pmWSW 7.0 12.0------ 57.0-----
2024-05-23 02:48 pmWSW 7.0 9.9------ 57.0-----
2024-05-23 02:42 pmWSW 9.9 12.0------ 56.8-----
2024-05-23 02:36 pm W 9.9 12.0------ 56.5-----
2024-05-23 02:30 pmWSW 11.1 15.0------ 56.7-----
2024-05-23 02:24 pm SW 7.0 12.0------ 57.7-----
2024-05-23 02:18 pm SW 8.9 12.0------ 58.1-----
2024-05-23 02:12 pmWSW 8.9 12.0------ 57.0-----
2024-05-23 02:06 pmWSW 6.0 13.0------ 57.0-----
2024-05-23 02:00 pmWSW 8.9 12.0------ 56.5-----
2024-05-23 01:54 pm W 8.0 11.1------ 56.1-----
2024-05-23 01:48 pm W 6.0 15.0------ 56.1-----
2024-05-23 01:42 pm SW 8.0 13.0------ 56.7-----
2024-05-23 01:36 pmWSW 8.9 13.0------ 56.3-----
2024-05-23 01:30 pmWSW 6.0 11.1------ 56.3-----
2024-05-23 01:24 pmWSW 6.0 8.9------ 56.3-----
2024-05-23 01:18 pmWSW 6.0 8.0------ 56.5-----
2024-05-23 01:12 pmWSW 5.1 12.0------ 55.8-----
2024-05-23 01:06 pmWSW 8.0 11.1------ 55.8-----
2024-05-23 01:00 pm SW 8.0 12.0------ 55.9-----
2024-05-23 12:54 pmSSW 6.0 11.1------ 56.3-----
2024-05-23 12:48 pmWSW 7.0 12.0------ 55.8-----
2024-05-23 12:42 pm W 8.9 12.0------ 54.9-----
2024-05-23 12:36 pmWSW 8.9 11.1------ 55.0-----
2024-05-23 12:30 pmWSW 7.0 9.9------ 55.6-----
2024-05-23 12:24 pmWSW 5.1 9.9------ 55.2-----
2024-05-23 12:18 pmWSW 9.9 12.0------ 54.7-----
2024-05-23 12:12 pmWSW 7.0 8.9------ 54.7-----
2024-05-23 12:06 pm SW 7.0 9.9------ 55.2-----
2024-05-23 12:00 pmSSW 8.9 14.0------ 55.0-----
2024-05-23 11:54 amSSW 8.0 12.0------ 55.2-----
2024-05-23 11:48 am SW 5.1 11.1------ 54.9-----
2024-05-23 11:42 amSSW 7.0 12.0------ 54.9-----
2024-05-23 11:36 amWSW 8.0 11.1------ 54.5-----
2024-05-23 11:30 amWSW 7.0 11.1------ 54.3-----
2024-05-23 11:24 am SW 7.0 13.0------ 54.5-----
2024-05-23 11:18 am SW 6.0 9.9------ 54.5-----
2024-05-23 11:12 amWSW 7.0 11.1------ 54.3-----
2024-05-23 11:06 am SW 6.0 8.9------ 54.3-----
2024-05-23 11:00 am SW 6.0 9.9------ 54.1-----
2024-05-23 10:54 am SW 8.9 12.0------ 54.1-----
2024-05-23 10:48 am SW 8.0 11.1------------
2024-05-23 10:42 am SW 7.0 12.0------------
2024-05-23 10:36 am SW 8.0 11.1------------
2024-05-23 10:30 am SW 6.0 12.0------ 53.8-----
2024-05-23 10:24 amSSW 8.0 12.0------ 53.8-----
2024-05-23 10:18 amSSW 7.0 12.0------ 54.1-----
2024-05-23 10:12 amSSW 6.0 9.9------ 54.3-----
2024-05-23 10:06 am SW 8.9 13.0------ 53.4-----
2024-05-23 10:00 am SW 8.9 11.1------ 53.4-----
2024-05-23 09:54 amSSW 6.0 13.0------ 54.0-----
2024-05-23 09:48 amSSW 8.0 11.1------ 53.2-----
2024-05-23 09:42 am SW 5.1 8.0------ 53.6-----
2024-05-23 09:36 am SW 5.1 11.1------ 53.6-----
2024-05-23 09:30 am SW 4.1 13.0------ 53.4-----
2024-05-23 09:24 am SW 5.1 11.1------ 53.6-----
2024-05-23 09:18 amWSW 6.0 8.9------ 53.4-----
2024-05-23 09:12 am SW 4.1 6.0------ 53.4-----
2024-05-23 09:06 amWSW 4.1 8.9------ 53.2-----
2024-05-23 09:00 amSSW 4.1 8.9------ 53.4-----
2024-05-23 08:54 amSSW 5.1 7.0------ 52.9-----
2024-05-23 08:48 amSSW 5.1 8.0------ 53.1-----
2024-05-23 08:42 am S 5.1 8.0------ 52.7-----
2024-05-23 08:36 am S 5.1 7.0------ 52.5-----
2024-05-23 08:30 amSSW 6.0 8.9------ 52.0-----
2024-05-23 08:24 amSSW 7.0 8.9------ 52.0-----
2024-05-23 08:18 amSSW 6.0 8.0------ 52.0-----
2024-05-23 08:12 amSSW 5.1 6.0------ 51.8-----
2024-05-23 08:06 am S 5.1 8.9------ 51.8-----
2024-05-23 08:00 amSSW 6.0 8.9------ 51.4-----
2024-05-23 07:54 amSSW 5.1 8.0------ 51.4-----
2024-05-23 07:48 amSSW 7.0 9.9------ 51.3-----
2024-05-23 07:42 amSSW 5.1 7.0------ 51.4-----
2024-05-23 07:36 amSSW 6.0 7.0------ 51.1-----
2024-05-23 07:30 amSSW 5.1 6.0------ 51.1-----
2024-05-23 07:24 am S 5.1 8.0------ 51.1-----
2024-05-23 07:18 am S 4.1 8.0------ 51.1-----
2024-05-23 07:12 am S 5.1 7.0------ 50.9-----
2024-05-23 07:06 amSSW 6.0 8.0------ 50.7-----
2024-05-23 07:00 am S 2.9 5.1------ 50.7-----
2024-05-23 06:54 am S 2.9 6.0------ 50.5-----
2024-05-23 06:48 amSSW 4.1 6.0------ 50.5-----
2024-05-23 06:42 am S 5.1 7.0------ 50.4-----
2024-05-23 06:36 am S 4.1 6.0------ 50.2-----
2024-05-23 06:30 amSSW 4.1 6.0------ 49.8-----
2024-05-23 06:24 amSSW 6.0 8.9------ 49.6-----
2024-05-23 06:18 am S 6.0 8.9------ 49.8-----
2024-05-23 06:12 am S 6.0 8.0------ 49.6-----
2024-05-23 06:06 am S 2.9 5.1------ 49.6-----
2024-05-23 06:00 am S 2.9 6.0------ 49.6-----
2024-05-23 05:54 am S 2.9 6.0------ 49.6-----
2024-05-23 05:48 am S 2.9 5.1------ 49.6-----
2024-05-23 05:42 am SE 1.9 4.1------ 49.6-----
2024-05-23 05:36 amSSE 2.9 6.0------ 49.5-----
2024-05-23 05:30 am S 2.9 5.1------ 49.6-----
2024-05-23 05:24 amSSE 2.9 7.0------ 49.6-----
2024-05-23 05:18 amSSE 5.1 6.0------ 49.5-----
2024-05-23 05:12 amSSE 4.1 6.0------ 49.5-----
2024-05-23 05:06 amSSE 5.1 7.0------ 49.3-----
2024-05-23 05:00 am SE 4.1 6.0------ 49.1-----
2024-05-23 04:54 amSSE 4.1 6.0------ 48.9-----
2024-05-23 04:48 am SE 6.0 7.0------ 48.7-----
2024-05-23 04:42 am SE 5.1 7.0------ 48.7-----
2024-05-23 04:36 am SE 5.1 7.0------ 48.7-----
2024-05-23 04:30 am SE 6.0 7.0------ 48.7-----
2024-05-23 04:24 am SE 5.1 8.0------ 48.6-----
2024-05-23 04:18 am SE 6.0 8.0------ 48.6-----
2024-05-23 04:12 am SE 5.1 7.0------ 48.7-----
2024-05-23 04:06 am SE 5.1 8.0------ 48.7-----
2024-05-23 04:00 am SE 6.0 8.0------ 48.9-----
2024-05-23 03:54 am SE 7.0 8.9------ 48.9-----
2024-05-23 03:48 am SE 6.0 8.0------ 49.1-----
2024-05-23 03:42 am SE 6.0 7.0------ 49.1-----
2024-05-23 03:36 am SE 6.0 7.0------ 49.3-----
2024-05-23 03:30 amSSE 6.0 8.0------ 49.3-----
2024-05-23 03:24 am SE 6.0 7.0------ 49.5-----
2024-05-23 03:18 am SE 7.0 8.0------ 49.5-----
2024-05-23 03:12 am SE 5.1 7.0------ 49.5-----
2024-05-23 03:06 am SE 5.1 7.0------ 49.5-----
2024-05-23 03:00 amESE 4.1 6.0------ 49.8-----
2024-05-23 02:54 am SE 4.1 6.0------ 49.8-----
2024-05-23 02:48 amSSE 4.1 5.1------ 50.0-----
2024-05-23 02:42 amSSE 4.1 5.1------ 50.2-----
2024-05-23 02:36 am SE 2.9 5.1------ 50.2-----
2024-05-23 02:30 am S 2.9 7.0------ 50.2-----
2024-05-23 02:24 am S 2.9 6.0------ 50.2-----
2024-05-23 02:18 am S 4.1 7.0------ 50.2-----
2024-05-23 02:12 amSSW 6.0 8.0------ 50.0-----
2024-05-23 02:06 amSSW 6.0 8.9------ 50.0-----
2024-05-23 02:00 amSSW 6.0 8.0------ 50.2-----
2024-05-23 01:54 amSSW 7.0 8.9------ 50.2-----
2024-05-23 01:48 amSSW 5.1 11.1------ 50.4-----
2024-05-23 01:42 amSSW 5.1 7.0------ 50.4-----
2024-05-23 01:36 amSSW 7.0 9.9------ 50.5-----
2024-05-23 01:30 amSSW 8.0 11.1------ 50.7-----
2024-05-23 01:24 amSSW 7.0 8.9------ 50.7-----
2024-05-23 01:18 amSSW 6.0 8.0------ 50.9-----
2024-05-23 01:12 am SW 7.0 8.0------ 51.1-----
2024-05-23 01:06 amSSW 4.1 6.0------ 51.4-----
2024-05-23 01:00 amSSW 5.1 8.0------ 51.4-----
2024-05-23 12:54 amSSW 5.1 7.0------ 51.6-----
2024-05-23 12:48 amSSW 2.9 5.1------ 51.8-----
2024-05-23 12:42 amSSW 1.9 2.9------ 52.2-----
2024-05-23 12:36 am S 1.9 5.1------ 52.3-----
2024-05-23 12:30 amSSW 5.1 7.0------ 52.2-----
2024-05-23 12:24 amSSW 5.1 8.0------ 52.3-----
2024-05-23 12:18 am S 2.9 7.0------ 52.5-----
2024-05-23 12:12 am S 4.1 7.0------ 52.7-----
2024-05-23 12:06 am S 2.9 5.1------ 53.2-----
2024-05-23 12:00 am S 4.1 5.1------ 53.4-----
2024-05-22 11:54 pmSSW 2.9 5.1------ 53.2-----